sensor_id;sensor_type;location;lat;lon;timestamp;P1;durP1;ratioP1;P2;durP2;ratioP2
49326;SDS011;35819;44.498;0.166;2022-09-09T00:03:53;12.93;;;2.60;;
49326;SDS011;35819;44.498;0.166;2022-09-09T00:06:27;1.65;;;0.82;;
49326;SDS011;35819;44.498;0.166;2022-09-09T00:14:20;8.73;;;3.05;;
49326;SDS011;35819;44.498;0.166;2022-09-09T00:16:55;2.67;;;1.33;;
49326;SDS011;35819;44.498;0.166;2022-09-09T00:19:37;9.63;;;2.55;;
49326;SDS011;35819;44.498;0.166;2022-09-09T00:22:15;4.45;;;1.20;;
49326;SDS011;35819;44.498;0.166;2022-09-09T00:24:44;5.70;;;2.45;;
49326;SDS011;35819;44.498;0.166;2022-09-09T00:27:18;1.88;;;0.70;;
49326;SDS011;35819;44.498;0.166;2022-09-09T00:29:53;6.78;;;2.38;;
49326;SDS011;35819;44.498;0.166;2022-09-09T00:32:22;7.38;;;2.28;;
49326;SDS011;35819;44.498;0.166;2022-09-09T00:37:27;11.52;;;1.63;;
49326;SDS011;35819;44.498;0.166;2022-09-09T00:39:57;11.60;;;4.35;;
49326;SDS011;35819;44.498;0.166;2022-09-09T00:47:40;8.98;;;2.78;;
49326;SDS011;35819;44.498;0.166;2022-09-09T00:58:14;2.10;;;1.63;;
49326;SDS011;35819;44.498;0.166;2022-09-09T01:00:47;2.50;;;2.40;;
49326;SDS011;35819;44.498;0.166;2022-09-09T01:03:35;6.97;;;3.42;;
49326;SDS011;35819;44.498;0.166;2022-09-09T01:11:22;4.03;;;3.72;;
49326;SDS011;35819;44.498;0.166;2022-09-09T01:13:55;3.45;;;2.88;;
49326;SDS011;35819;44.498;0.166;2022-09-09T01:16:35;4.07;;;3.78;;
49326;SDS011;35819;44.498;0.166;2022-09-09T01:19:01;17.70;;;6.78;;
49326;SDS011;35819;44.498;0.166;2022-09-09T01:26:30;6.13;;;3.20;;
49326;SDS011;35819;44.498;0.166;2022-09-09T01:29:02;8.30;;;3.05;;
49326;SDS011;35819;44.498;0.166;2022-09-09T01:31:34;11.07;;;2.65;;
49326;SDS011;35819;44.498;0.166;2022-09-09T01:34:09;9.45;;;3.60;;
49326;SDS011;35819;44.498;0.166;2022-09-09T01:36:42;9.90;;;2.20;;
49326;SDS011;35819;44.498;0.166;2022-09-09T01:39:16;9.05;;;4.55;;
49326;SDS011;35819;44.498;0.166;2022-09-09T01:41:42;2.90;;;2.55;;
49326;SDS011;35819;44.498;0.166;2022-09-09T01:44:08;4.43;;;3.40;;
49326;SDS011;35819;44.498;0.166;2022-09-09T01:46:35;10.00;;;3.67;;
49326;SDS011;35819;44.498;0.166;2022-09-09T01:49:01;11.20;;;4.50;;
49326;SDS011;35819;44.498;0.166;2022-09-09T01:51:29;5.53;;;4.50;;
49326;SDS011;35819;44.498;0.166;2022-09-09T01:53:55;4.18;;;3.85;;
49326;SDS011;35819;44.498;0.166;2022-09-09T01:56:25;8.85;;;3.42;;
49326;SDS011;35819;44.498;0.166;2022-09-09T01:59:08;6.20;;;4.25;;
49326;SDS011;35819;44.498;0.166;2022-09-09T02:04:18;4.43;;;2.72;;
49326;SDS011;35819;44.498;0.166;2022-09-09T02:06:53;4.20;;;2.38;;
49326;SDS011;35819;44.498;0.166;2022-09-09T02:09:23;8.85;;;2.45;;
49326;SDS011;35819;44.498;0.166;2022-09-09T02:11:53;6.78;;;2.10;;
49326;SDS011;35819;44.498;0.166;2022-09-09T02:14:27;5.40;;;3.10;;
49326;SDS011;35819;44.498;0.166;2022-09-09T02:17:01;4.05;;;1.92;;
49326;SDS011;35819;44.498;0.166;2022-09-09T02:19:39;6.50;;;1.38;;
49326;SDS011;35819;44.498;0.166;2022-09-09T02:22:13;6.55;;;2.97;;
49326;SDS011;35819;44.498;0.166;2022-09-09T02:24:44;1.55;;;1.48;;
49326;SDS011;35819;44.498;0.166;2022-09-09T02:27:11;8.05;;;2.85;;
49326;SDS011;35819;44.498;0.166;2022-09-09T02:29:41;6.10;;;3.70;;
49326;SDS011;35819;44.498;0.166;2022-09-09T02:32:11;6.45;;;2.50;;
49326;SDS011;35819;44.498;0.166;2022-09-09T02:34:41;7.70;;;3.30;;
49326;SDS011;35819;44.498;0.166;2022-09-09T02:37:13;5.90;;;3.78;;
49326;SDS011;35819;44.498;0.166;2022-09-09T02:39:43;7.35;;;2.83;;
49326;SDS011;35819;44.498;0.166;2022-09-09T02:42:09;18.00;;;4.85;;
49326;SDS011;35819;44.498;0.166;2022-09-09T02:44:35;14.98;;;4.15;;
49326;SDS011;35819;44.498;0.166;2022-09-09T02:50:04;4.93;;;3.13;;
49326;SDS011;35819;44.498;0.166;2022-09-09T02:55:45;4.53;;;2.50;;
49326;SDS011;35819;44.498;0.166;2022-09-09T02:58:13;7.38;;;3.92;;
49326;SDS011;35819;44.498;0.166;2022-09-09T03:00:42;3.45;;;2.83;;
49326;SDS011;35819;44.498;0.166;2022-09-09T03:03:10;12.45;;;4.93;;
49326;SDS011;35819;44.498;0.166;2022-09-09T03:05:36;4.20;;;3.80;;
49326;SDS011;35819;44.498;0.166;2022-09-09T03:08:03;7.35;;;4.88;;
49326;SDS011;35819;44.498;0.166;2022-09-09T03:10:30;11.35;;;6.32;;
49326;SDS011;35819;44.498;0.166;2022-09-09T03:12:57;6.63;;;4.38;;
49326;SDS011;35819;44.498;0.166;2022-09-09T03:15:23;6.32;;;4.60;;
49326;SDS011;35819;44.498;0.166;2022-09-09T03:17:48;6.80;;;5.40;;
49326;SDS011;35819;44.498;0.166;2022-09-09T03:20:14;11.80;;;4.70;;
49326;SDS011;35819;44.498;0.166;2022-09-09T03:22:40;7.63;;;4.38;;
49326;SDS011;35819;44.498;0.166;2022-09-09T03:25:06;4.45;;;3.88;;
49326;SDS011;35819;44.498;0.166;2022-09-09T03:27:32;10.82;;;4.20;;
49326;SDS011;35819;44.498;0.166;2022-09-09T03:29:57;15.32;;;4.97;;
49326;SDS011;35819;44.498;0.166;2022-09-09T03:32:24;15.38;;;5.25;;
49326;SDS011;35819;44.498;0.166;2022-09-09T03:34:51;12.45;;;5.85;;
49326;SDS011;35819;44.498;0.166;2022-09-09T03:37:17;5.53;;;3.45;;
49326;SDS011;35819;44.498;0.166;2022-09-09T03:39:44;6.82;;;5.38;;
49326;SDS011;35819;44.498;0.166;2022-09-09T03:42:12;13.65;;;4.40;;
49326;SDS011;35819;44.498;0.166;2022-09-09T03:44:39;9.27;;;4.38;;
49326;SDS011;35819;44.498;0.166;2022-09-09T03:47:07;13.55;;;5.95;;
49326;SDS011;35819;44.498;0.166;2022-09-09T03:49:33;36.70;;;7.45;;
49326;SDS011;35819;44.498;0.166;2022-09-09T03:51:58;8.32;;;5.47;;
49326;SDS011;35819;44.498;0.166;2022-09-09T03:54:26;5.70;;;5.20;;
49326;SDS011;35819;44.498;0.166;2022-09-09T03:56:52;9.93;;;5.13;;
49326;SDS011;35819;44.498;0.166;2022-09-09T03:59:18;21.55;;;5.95;;
49326;SDS011;35819;44.498;0.166;2022-09-09T04:01:44;6.38;;;3.40;;
49326;SDS011;35819;44.498;0.166;2022-09-09T04:04:10;5.38;;;4.72;;
49326;SDS011;35819;44.498;0.166;2022-09-09T04:06:37;9.98;;;5.35;;
49326;SDS011;35819;44.498;0.166;2022-09-09T04:09:02;10.07;;;5.55;;
49326;SDS011;35819;44.498;0.166;2022-09-09T04:11:28;11.80;;;5.25;;
49326;SDS011;35819;44.498;0.166;2022-09-09T04:13:54;7.47;;;5.72;;
49326;SDS011;35819;44.498;0.166;2022-09-09T04:16:20;7.55;;;5.93;;
49326;SDS011;35819;44.498;0.166;2022-09-09T04:18:46;18.08;;;6.30;;
49326;SDS011;35819;44.498;0.166;2022-09-09T04:21:12;7.60;;;5.75;;
49326;SDS011;35819;44.498;0.166;2022-09-09T04:23:38;14.93;;;7.32;;
49326;SDS011;35819;44.498;0.166;2022-09-09T04:26:04;11.93;;;4.32;;
49326;SDS011;35819;44.498;0.166;2022-09-09T04:28:31;4.75;;;4.35;;
49326;SDS011;35819;44.498;0.166;2022-09-09T04:31:06;25.77;;;7.38;;
49326;SDS011;35819;44.498;0.166;2022-09-09T04:33:32;10.23;;;4.40;;
49326;SDS011;35819;44.498;0.166;2022-09-09T04:35:58;9.93;;;5.80;;
49326;SDS011;35819;44.498;0.166;2022-09-09T04:38:24;12.43;;;5.38;;
49326;SDS011;35819;44.498;0.166;2022-09-09T04:40:51;6.20;;;4.75;;
49326;SDS011;35819;44.498;0.166;2022-09-09T04:43:19;13.18;;;5.80;;
49326;SDS011;35819;44.498;0.166;2022-09-09T04:45:48;9.77;;;6.07;;
49326;SDS011;35819;44.498;0.166;2022-09-09T04:48:16;16.77;;;6.05;;
49326;SDS011;35819;44.498;0.166;2022-09-09T04:50:42;6.05;;;5.00;;
49326;SDS011;35819;44.498;0.166;2022-09-09T04:53:08;8.50;;;6.38;;
49326;SDS011;35819;44.498;0.166;2022-09-09T04:55:34;16.17;;;7.00;;
49326;SDS011;35819;44.498;0.166;2022-09-09T04:58:07;11.68;;;8.07;;
49326;SDS011;35819;44.498;0.166;2022-09-09T05:00:34;9.00;;;5.47;;
49326;SDS011;35819;44.498;0.166;2022-09-09T05:03:06;10.18;;;4.22;;
49326;SDS011;35819;44.498;0.166;2022-09-09T05:05:34;13.30;;;4.22;;
49326;SDS011;35819;44.498;0.166;2022-09-09T05:08:01;8.23;;;5.82;;
49326;SDS011;35819;44.498;0.166;2022-09-09T05:10:28;6.93;;;6.32;;
49326;SDS011;35819;44.498;0.166;2022-09-09T05:12:54;7.68;;;4.35;;
49326;SDS011;35819;44.498;0.166;2022-09-09T05:15:20;16.42;;;5.05;;
49326;SDS011;35819;44.498;0.166;2022-09-09T05:17:46;19.30;;;5.13;;
49326;SDS011;35819;44.498;0.166;2022-09-09T05:20:12;4.30;;;3.30;;
49326;SDS011;35819;44.498;0.166;2022-09-09T05:22:37;7.68;;;4.07;;
49326;SDS011;35819;44.498;0.166;2022-09-09T05:25:03;9.98;;;4.15;;
49326;SDS011;35819;44.498;0.166;2022-09-09T05:27:29;9.32;;;5.47;;
49326;SDS011;35819;44.498;0.166;2022-09-09T05:29:58;9.82;;;3.33;;
49326;SDS011;35819;44.498;0.166;2022-09-09T05:32:24;9.38;;;5.32;;
49326;SDS011;35819;44.498;0.166;2022-09-09T05:34:49;9.95;;;3.30;;
49326;SDS011;35819;44.498;0.166;2022-09-09T05:37:16;6.22;;;2.95;;
49326;SDS011;35819;44.498;0.166;2022-09-09T05:39:42;3.67;;;3.35;;
49326;SDS011;35819;44.498;0.166;2022-09-09T05:42:07;9.80;;;5.50;;
49326;SDS011;35819;44.498;0.166;2022-09-09T05:44:33;6.25;;;2.92;;
49326;SDS011;35819;44.498;0.166;2022-09-09T05:46:59;12.15;;;4.32;;
49326;SDS011;35819;44.498;0.166;2022-09-09T05:49:25;5.28;;;4.78;;
49326;SDS011;35819;44.498;0.166;2022-09-09T05:51:51;5.00;;;3.60;;
49326;SDS011;35819;44.498;0.166;2022-09-09T05:54:17;15.30;;;4.35;;
49326;SDS011;35819;44.498;0.166;2022-09-09T05:56:42;6.25;;;5.00;;
49326;SDS011;35819;44.498;0.166;2022-09-09T05:59:08;7.63;;;5.03;;
49326;SDS011;35819;44.498;0.166;2022-09-09T06:01:35;9.77;;;5.47;;
49326;SDS011;35819;44.498;0.166;2022-09-09T06:04:05;14.07;;;3.70;;
49326;SDS011;35819;44.498;0.166;2022-09-09T06:06:32;17.67;;;5.45;;
49326;SDS011;35819;44.498;0.166;2022-09-09T06:09:04;7.00;;;3.17;;
49326;SDS011;35819;44.498;0.166;2022-09-09T06:11:34;6.75;;;3.35;;
49326;SDS011;35819;44.498;0.166;2022-09-09T06:14:01;15.20;;;4.03;;
49326;SDS011;35819;44.498;0.166;2022-09-09T06:16:27;8.32;;;5.05;;
49326;SDS011;35819;44.498;0.166;2022-09-09T06:18:54;29.75;;;6.70;;
49326;SDS011;35819;44.498;0.166;2022-09-09T06:21:25;9.80;;;5.07;;
49326;SDS011;35819;44.498;0.166;2022-09-09T06:24:15;10.38;;;5.22;;
49326;SDS011;35819;44.498;0.166;2022-09-09T06:26:42;7.63;;;5.78;;
49326;SDS011;35819;44.498;0.166;2022-09-09T06:29:08;9.43;;;4.22;;
49326;SDS011;35819;44.498;0.166;2022-09-09T06:31:34;12.20;;;3.17;;
49326;SDS011;35819;44.498;0.166;2022-09-09T06:34:02;3.22;;;2.80;;
49326;SDS011;35819;44.498;0.166;2022-09-09T06:36:32;11.80;;;3.97;;
49326;SDS011;35819;44.498;0.166;2022-09-09T06:38:59;12.73;;;6.63;;
49326;SDS011;35819;44.498;0.166;2022-09-09T06:41:28;5.55;;;4.78;;
49326;SDS011;35819;44.498;0.166;2022-09-09T06:43:54;10.32;;;5.07;;
49326;SDS011;35819;44.498;0.166;2022-09-09T06:46:22;9.07;;;5.25;;
49326;SDS011;35819;44.498;0.166;2022-09-09T06:48:53;9.55;;;4.28;;
49326;SDS011;35819;44.498;0.166;2022-09-09T06:51:21;12.20;;;4.35;;
49326;SDS011;35819;44.498;0.166;2022-09-09T06:53:50;6.05;;;4.13;;
49326;SDS011;35819;44.498;0.166;2022-09-09T06:56:17;4.95;;;3.30;;
49326;SDS011;35819;44.498;0.166;2022-09-09T06:58:46;14.80;;;4.70;;
49326;SDS011;35819;44.498;0.166;2022-09-09T07:01:16;6.22;;;3.00;;
49326;SDS011;35819;44.498;0.166;2022-09-09T07:03:48;14.05;;;4.95;;
49326;SDS011;35819;44.498;0.166;2022-09-09T07:06:21;8.75;;;3.30;;
49326;SDS011;35819;44.498;0.166;2022-09-09T07:09:07;11.50;;;4.43;;
49326;SDS011;35819;44.498;0.166;2022-09-09T07:11:54;6.85;;;2.95;;
49326;SDS011;35819;44.498;0.166;2022-09-09T07:14:27;4.88;;;2.60;;
49326;SDS011;35819;44.498;0.166;2022-09-09T07:16:53;9.85;;;3.47;;
49326;SDS011;35819;44.498;0.166;2022-09-09T07:19:18;6.68;;;4.65;;
49326;SDS011;35819;44.498;0.166;2022-09-09T07:21:47;9.00;;;4.85;;
49326;SDS011;35819;44.498;0.166;2022-09-09T07:24:23;11.52;;;2.47;;
49326;SDS011;35819;44.498;0.166;2022-09-09T07:26:51;6.47;;;1.95;;
49326;SDS011;35819;44.498;0.166;2022-09-09T07:29:35;6.30;;;5.28;;
49326;SDS011;35819;44.498;0.166;2022-09-09T07:32:23;5.45;;;2.78;;
49326;SDS011;35819;44.498;0.166;2022-09-09T07:34:50;17.48;;;2.58;;
49326;SDS011;35819;44.498;0.166;2022-09-09T07:37:19;5.35;;;2.47;;
49326;SDS011;35819;44.498;0.166;2022-09-09T07:39:54;9.93;;;4.00;;
49326;SDS011;35819;44.498;0.166;2022-09-09T07:42:20;8.35;;;2.47;;
49326;SDS011;35819;44.498;0.166;2022-09-09T07:44:48;11.43;;;4.13;;
49326;SDS011;35819;44.498;0.166;2022-09-09T07:47:16;18.20;;;5.60;;
49326;SDS011;35819;44.498;0.166;2022-09-09T07:49:58;10.38;;;3.28;;
49326;SDS011;35819;44.498;0.166;2022-09-09T07:52:56;13.30;;;4.65;;
49326;SDS011;35819;44.498;0.166;2022-09-09T07:55:58;7.53;;;2.67;;
49326;SDS011;35819;44.498;0.166;2022-09-09T07:58:54;11.55;;;2.15;;
49326;SDS011;35819;44.498;0.166;2022-09-09T08:01:48;19.63;;;4.13;;
49326;SDS011;35819;44.498;0.166;2022-09-09T08:04:50;4.35;;;2.28;;
49326;SDS011;35819;44.498;0.166;2022-09-09T08:10:06;3.13;;;2.72;;
49326;SDS011;35819;44.498;0.166;2022-09-09T08:13:03;16.25;;;4.05;;
49326;SDS011;35819;44.498;0.166;2022-09-09T08:28:53;8.73;;;3.53;;
49326;SDS011;35819;44.498;0.166;2022-09-09T08:31:24;8.30;;;3.92;;
49326;SDS011;35819;44.498;0.166;2022-09-09T08:33:58;12.50;;;3.17;;
49326;SDS011;35819;44.498;0.166;2022-09-09T08:40:03;9.50;;;2.70;;
49326;SDS011;35819;44.498;0.166;2022-09-09T09:03:52;4.60;;;3.63;;
49326;SDS011;35819;44.498;0.166;2022-09-09T09:17:01;10.38;;;2.08;;
49326;SDS011;35819;44.498;0.166;2022-09-09T09:19:56;10.65;;;2.05;;
49326;SDS011;35819;44.498;0.166;2022-09-09T09:22:32;14.75;;;3.33;;
49326;SDS011;35819;44.498;0.166;2022-09-09T09:25:25;18.05;;;2.63;;
49326;SDS011;35819;44.498;0.166;2022-09-09T09:33:53;11.32;;;4.13;;
49326;SDS011;35819;44.498;0.166;2022-09-09T09:36:39;3.33;;;1.88;;
49326;SDS011;35819;44.498;0.166;2022-09-09T09:46:21;10.23;;;2.97;;
49326;SDS011;35819;44.498;0.166;2022-09-09T09:49:01;3.38;;;1.35;;
49326;SDS011;35819;44.498;0.166;2022-09-09T09:51:48;10.23;;;1.20;;
49326;SDS011;35819;44.498;0.166;2022-09-09T09:54:22;5.88;;;1.42;;
49326;SDS011;35819;44.498;0.166;2022-09-09T10:00:26;12.30;;;4.50;;
49326;SDS011;35819;44.498;0.166;2022-09-09T10:02:54;5.57;;;1.38;;
49326;SDS011;35819;44.498;0.166;2022-09-09T10:05:24;3.80;;;1.17;;
49326;SDS011;35819;44.498;0.166;2022-09-09T10:08:02;20.45;;;2.85;;
49326;SDS011;35819;44.498;0.166;2022-09-09T10:13:18;1.60;;;0.35;;
49326;SDS011;35819;44.498;0.166;2022-09-09T10:18:36;4.22;;;1.27;;
49326;SDS011;35819;44.498;0.166;2022-09-09T10:24:18;4.63;;;2.42;;
49326;SDS011;35819;44.498;0.166;2022-09-09T10:29:42;2.78;;;0.82;;
49326;SDS011;35819;44.498;0.166;2022-09-09T10:46:12;4.82;;;0.82;;
49326;SDS011;35819;44.498;0.166;2022-09-09T11:00:22;3.10;;;1.02;;
49326;SDS011;35819;44.498;0.166;2022-09-09T11:06:17;3.92;;;1.73;;
49326;SDS011;35819;44.498;0.166;2022-09-09T11:09:11;4.70;;;2.20;;
49326;SDS011;35819;44.498;0.166;2022-09-09T11:11:59;8.85;;;3.53;;
49326;SDS011;35819;44.498;0.166;2022-09-09T11:17:42;6.18;;;2.50;;
49326;SDS011;35819;44.498;0.166;2022-09-09T11:24:09;9.27;;;1.92;;
49326;SDS011;35819;44.498;0.166;2022-09-09T11:38:47;3.55;;;1.05;;
49326;SDS011;35819;44.498;0.166;2022-09-09T11:41:22;5.30;;;0.77;;
49326;SDS011;35819;44.498;0.166;2022-09-09T11:43:49;5.82;;;1.25;;
49326;SDS011;35819;44.498;0.166;2022-09-09T11:48:45;5.35;;;1.63;;
49326;SDS011;35819;44.498;0.166;2022-09-09T11:56:26;3.08;;;1.38;;
49326;SDS011;35819;44.498;0.166;2022-09-09T11:58:58;2.58;;;1.80;;
49326;SDS011;35819;44.498;0.166;2022-09-09T12:01:43;12.13;;;2.80;;
49326;SDS011;35819;44.498;0.166;2022-09-09T12:06:53;4.35;;;2.10;;
49326;SDS011;35819;44.498;0.166;2022-09-09T12:09:54;14.90;;;2.22;;
49326;SDS011;35819;44.498;0.166;2022-09-09T12:12:44;11.02;;;2.38;;
49326;SDS011;35819;44.498;0.166;2022-09-09T12:17:41;3.30;;;1.75;;
49326;SDS011;35819;44.498;0.166;2022-09-09T12:20:18;4.82;;;1.55;;
49326;SDS011;35819;44.498;0.166;2022-09-09T12:33:21;10.85;;;2.33;;
49326;SDS011;35819;44.498;0.166;2022-09-09T12:35:53;8.25;;;0.80;;
49326;SDS011;35819;44.498;0.166;2022-09-09T12:38:27;7.13;;;1.95;;
49326;SDS011;35819;44.498;0.166;2022-09-09T12:40:58;1.63;;;0.88;;
49326;SDS011;35819;44.498;0.166;2022-09-09T12:43:25;3.70;;;2.30;;
49326;SDS011;35819;44.498;0.166;2022-09-09T12:45:56;2.28;;;1.52;;
49326;SDS011;35819;44.498;0.166;2022-09-09T12:48:33;4.38;;;1.75;;
49326;SDS011;35819;44.498;0.166;2022-09-09T12:53:55;4.97;;;1.35;;
49326;SDS011;35819;44.498;0.166;2022-09-09T12:56:27;10.43;;;2.97;;
49326;SDS011;35819;44.498;0.166;2022-09-09T12:58:56;5.10;;;2.60;;
49326;SDS011;35819;44.498;0.166;2022-09-09T13:01:26;6.55;;;2.10;;
49326;SDS011;35819;44.498;0.166;2022-09-09T13:03:53;1.88;;;0.95;;
49326;SDS011;35819;44.498;0.166;2022-09-09T13:06:23;5.07;;;1.05;;
49326;SDS011;35819;44.498;0.166;2022-09-09T13:08:54;1.65;;;1.02;;
49326;SDS011;35819;44.498;0.166;2022-09-09T13:14:50;6.10;;;1.80;;
49326;SDS011;35819;44.498;0.166;2022-09-09T13:17:24;2.88;;;1.02;;
49326;SDS011;35819;44.498;0.166;2022-09-09T13:22:59;5.55;;;2.70;;
49326;SDS011;35819;44.498;0.166;2022-09-09T13:28:43;1.73;;;0.20;;
49326;SDS011;35819;44.498;0.166;2022-09-09T13:31:44;8.90;;;1.75;;
49326;SDS011;35819;44.498;0.166;2022-09-09T13:34:34;2.33;;;0.95;;
49326;SDS011;35819;44.498;0.166;2022-09-09T13:37:37;4.53;;;0.93;;
49326;SDS011;35819;44.498;0.166;2022-09-09T13:40:17;4.25;;;1.27;;
49326;SDS011;35819;44.498;0.166;2022-09-09T13:42:44;1.77;;;0.63;;
49326;SDS011;35819;44.498;0.166;2022-09-09T13:45:18;6.95;;;1.35;;
49326;SDS011;35819;44.498;0.166;2022-09-09T13:47:47;5.03;;;0.98;;
49326;SDS011;35819;44.498;0.166;2022-09-09T13:50:25;7.47;;;1.52;;
49326;SDS011;35819;44.498;0.166;2022-09-09T13:52:55;10.65;;;2.33;;
49326;SDS011;35819;44.498;0.166;2022-09-09T14:00:35;8.18;;;1.60;;
49326;SDS011;35819;44.498;0.166;2022-09-09T14:03:00;5.00;;;1.35;;
49326;SDS011;35819;44.498;0.166;2022-09-09T14:05:33;9.30;;;1.02;;
49326;SDS011;35819;44.498;0.166;2022-09-09T14:08:22;9.27;;;2.15;;
49326;SDS011;35819;44.498;0.166;2022-09-09T14:14:41;3.30;;;0.75;;
49326;SDS011;35819;44.498;0.166;2022-09-09T14:17:08;6.15;;;0.88;;
49326;SDS011;35819;44.498;0.166;2022-09-09T14:20:02;1.85;;;1.20;;
49326;SDS011;35819;44.498;0.166;2022-09-09T14:22:49;1.08;;;0.75;;
49326;SDS011;35819;44.498;0.166;2022-09-09T14:28:31;2.13;;;0.50;;
49326;SDS011;35819;44.498;0.166;2022-09-09T14:31:13;2.55;;;0.52;;
49326;SDS011;35819;44.498;0.166;2022-09-09T14:33:40;5.25;;;1.65;;
49326;SDS011;35819;44.498;0.166;2022-09-09T14:36:06;3.55;;;0.98;;
49326;SDS011;35819;44.498;0.166;2022-09-09T14:38:41;5.10;;;0.70;;
49326;SDS011;35819;44.498;0.166;2022-09-09T14:41:11;7.40;;;1.30;;
49326;SDS011;35819;44.498;0.166;2022-09-09T14:43:55;8.90;;;2.25;;
49326;SDS011;35819;44.498;0.166;2022-09-09T14:46:37;32.55;;;3.30;;
49326;SDS011;35819;44.498;0.166;2022-09-09T14:49:03;8.93;;;1.85;;
49326;SDS011;35819;44.498;0.166;2022-09-09T14:51:45;5.60;;;0.68;;
49326;SDS011;35819;44.498;0.166;2022-09-09T14:57:28;4.03;;;0.98;;
49326;SDS011;35819;44.498;0.166;2022-09-09T14:59:56;8.80;;;2.67;;
49326;SDS011;35819;44.498;0.166;2022-09-09T15:02:22;5.80;;;0.73;;
49326;SDS011;35819;44.498;0.166;2022-09-09T15:04:51;2.33;;;1.23;;
49326;SDS011;35819;44.498;0.166;2022-09-09T15:07:18;1.33;;;0.98;;
49326;SDS011;35819;44.498;0.166;2022-09-09T15:09:44;1.33;;;1.23;;
49326;SDS011;35819;44.498;0.166;2022-09-09T15:12:15;9.02;;;1.30;;
49326;SDS011;35819;44.498;0.166;2022-09-09T15:14:43;1.80;;;0.40;;
49326;SDS011;35819;44.498;0.166;2022-09-09T15:17:19;3.50;;;0.95;;
49326;SDS011;35819;44.498;0.166;2022-09-09T15:19:45;3.95;;;1.70;;
49326;SDS011;35819;44.498;0.166;2022-09-09T15:22:11;4.97;;;1.20;;
49326;SDS011;35819;44.498;0.166;2022-09-09T15:24:36;2.45;;;1.08;;
49326;SDS011;35819;44.498;0.166;2022-09-09T15:27:02;1.98;;;0.70;;
49326;SDS011;35819;44.498;0.166;2022-09-09T15:29:28;6.82;;;0.85;;
49326;SDS011;35819;44.498;0.166;2022-09-09T15:31:56;9.40;;;2.13;;
49326;SDS011;35819;44.498;0.166;2022-09-09T15:34:22;14.65;;;1.70;;
49326;SDS011;35819;44.498;0.166;2022-09-09T15:36:48;1.88;;;1.05;;
49326;SDS011;35819;44.498;0.166;2022-09-09T15:39:14;6.60;;;1.13;;
49326;SDS011;35819;44.498;0.166;2022-09-09T15:41:42;8.82;;;1.45;;
49326;SDS011;35819;44.498;0.166;2022-09-09T15:44:09;4.07;;;0.95;;
49326;SDS011;35819;44.498;0.166;2022-09-09T15:46:38;1.05;;;0.45;;
49326;SDS011;35819;44.498;0.166;2022-09-09T15:49:07;4.65;;;1.75;;
49326;SDS011;35819;44.498;0.166;2022-09-09T15:51:35;6.65;;;1.50;;
49326;SDS011;35819;44.498;0.166;2022-09-09T15:54:02;1.02;;;0.82;;
49326;SDS011;35819;44.498;0.166;2022-09-09T15:56:31;8.93;;;2.15;;
49326;SDS011;35819;44.498;0.166;2022-09-09T15:59:00;4.47;;;0.90;;
49326;SDS011;35819;44.498;0.166;2022-09-09T16:01:28;3.15;;;1.40;;
49326;SDS011;35819;44.498;0.166;2022-09-09T16:03:55;2.17;;;0.85;;
49326;SDS011;35819;44.498;0.166;2022-09-09T16:06:22;10.75;;;1.40;;
49326;SDS011;35819;44.498;0.166;2022-09-09T16:08:49;3.90;;;0.90;;
49326;SDS011;35819;44.498;0.166;2022-09-09T16:11:18;1.73;;;1.35;;
49326;SDS011;35819;44.498;0.166;2022-09-09T16:13:49;4.25;;;1.05;;
49326;SDS011;35819;44.498;0.166;2022-09-09T16:16:17;4.95;;;1.25;;
49326;SDS011;35819;44.498;0.166;2022-09-09T16:18:48;1.52;;;0.77;;
49326;SDS011;35819;44.498;0.166;2022-09-09T16:23:46;2.67;;;0.80;;
49326;SDS011;35819;44.498;0.166;2022-09-09T16:26:14;6.55;;;1.05;;
49326;SDS011;35819;44.498;0.166;2022-09-09T16:28:41;5.85;;;0.80;;
49326;SDS011;35819;44.498;0.166;2022-09-09T16:31:08;2.60;;;1.02;;
49326;SDS011;35819;44.498;0.166;2022-09-09T16:33:43;3.50;;;0.80;;
49326;SDS011;35819;44.498;0.166;2022-09-09T16:36:11;4.97;;;1.00;;
49326;SDS011;35819;44.498;0.166;2022-09-09T16:38:38;2.22;;;0.98;;
49326;SDS011;35819;44.498;0.166;2022-09-09T16:41:05;6.20;;;1.25;;
49326;SDS011;35819;44.498;0.166;2022-09-09T16:43:34;2.28;;;2.08;;
49326;SDS011;35819;44.498;0.166;2022-09-09T16:46:14;2.95;;;0.73;;
49326;SDS011;35819;44.498;0.166;2022-09-09T16:48:43;3.70;;;0.88;;
49326;SDS011;35819;44.498;0.166;2022-09-09T16:51:16;3.33;;;1.13;;
49326;SDS011;35819;44.498;0.166;2022-09-09T16:53:43;7.82;;;1.52;;
49326;SDS011;35819;44.498;0.166;2022-09-09T16:56:11;5.53;;;1.35;;
49326;SDS011;35819;44.498;0.166;2022-09-09T16:58:42;2.83;;;1.13;;
49326;SDS011;35819;44.498;0.166;2022-09-09T17:01:11;9.73;;;2.03;;
49326;SDS011;35819;44.498;0.166;2022-09-09T17:03:39;4.72;;;0.77;;
49326;SDS011;35819;44.498;0.166;2022-09-09T17:06:09;1.83;;;0.73;;
49326;SDS011;35819;44.498;0.166;2022-09-09T17:08:36;6.47;;;1.77;;
49326;SDS011;35819;44.498;0.166;2022-09-09T17:11:04;2.97;;;1.08;;
49326;SDS011;35819;44.498;0.166;2022-09-09T17:13:38;3.72;;;1.17;;
49326;SDS011;35819;44.498;0.166;2022-09-09T17:16:05;3.55;;;1.70;;
49326;SDS011;35819;44.498;0.166;2022-09-09T17:18:31;3.42;;;1.35;;
49326;SDS011;35819;44.498;0.166;2022-09-09T17:21:01;3.33;;;1.25;;
49326;SDS011;35819;44.498;0.166;2022-09-09T17:23:28;5.28;;;1.63;;
49326;SDS011;35819;44.498;0.166;2022-09-09T17:25:58;4.53;;;0.82;;
49326;SDS011;35819;44.498;0.166;2022-09-09T17:28:25;3.42;;;0.75;;
49326;SDS011;35819;44.498;0.166;2022-09-09T17:30:56;5.45;;;2.38;;
49326;SDS011;35819;44.498;0.166;2022-09-09T17:33:27;4.97;;;0.73;;
49326;SDS011;35819;44.498;0.166;2022-09-09T17:35:57;1.40;;;0.40;;
49326;SDS011;35819;44.498;0.166;2022-09-09T17:38:24;5.93;;;2.53;;
49326;SDS011;35819;44.498;0.166;2022-09-09T17:43:34;5.30;;;1.67;;
49326;SDS011;35819;44.498;0.166;2022-09-09T17:46:15;5.38;;;0.68;;
49326;SDS011;35819;44.498;0.166;2022-09-09T17:48:47;2.40;;;0.43;;
49326;SDS011;35819;44.498;0.166;2022-09-09T17:51:16;5.45;;;1.95;;
49326;SDS011;35819;44.498;0.166;2022-09-09T17:53:46;7.75;;;1.98;;
49326;SDS011;35819;44.498;0.166;2022-09-09T17:56:15;4.07;;;1.35;;
49326;SDS011;35819;44.498;0.166;2022-09-09T17:58:44;4.95;;;1.20;;
49326;SDS011;35819;44.498;0.166;2022-09-09T18:01:12;12.55;;;1.88;;
49326;SDS011;35819;44.498;0.166;2022-09-09T18:03:40;9.60;;;1.15;;
49326;SDS011;35819;44.498;0.166;2022-09-09T18:06:08;4.18;;;1.38;;
49326;SDS011;35819;44.498;0.166;2022-09-09T18:08:38;9.02;;;1.85;;
49326;SDS011;35819;44.498;0.166;2022-09-09T18:11:05;11.82;;;1.85;;
49326;SDS011;35819;44.498;0.166;2022-09-09T18:13:32;5.05;;;0.50;;
49326;SDS011;35819;44.498;0.166;2022-09-09T18:15:58;9.63;;;2.80;;
49326;SDS011;35819;44.498;0.166;2022-09-09T18:18:25;6.38;;;0.80;;
49326;SDS011;35819;44.498;0.166;2022-09-09T18:21:02;6.70;;;0.82;;
49326;SDS011;35819;44.498;0.166;2022-09-09T18:23:30;1.05;;;0.98;;
49326;SDS011;35819;44.498;0.166;2022-09-09T18:26:05;6.20;;;2.20;;
49326;SDS011;35819;44.498;0.166;2022-09-09T18:28:34;2.80;;;1.23;;
49326;SDS011;35819;44.498;0.166;2022-09-09T18:31:03;4.45;;;1.17;;
49326;SDS011;35819;44.498;0.166;2022-09-09T18:33:32;2.40;;;0.52;;
49326;SDS011;35819;44.498;0.166;2022-09-09T18:36:04;3.53;;;0.87;;
49326;SDS011;35819;44.498;0.166;2022-09-09T18:38:32;4.57;;;1.27;;
49326;SDS011;35819;44.498;0.166;2022-09-09T18:41:00;3.95;;;1.65;;
49326;SDS011;35819;44.498;0.166;2022-09-09T18:43:36;4.40;;;0.95;;
49326;SDS011;35819;44.498;0.166;2022-09-09T18:46:03;2.20;;;1.10;;
49326;SDS011;35819;44.498;0.166;2022-09-09T18:48:32;6.13;;;1.77;;
49326;SDS011;35819;44.498;0.166;2022-09-09T18:51:02;3.28;;;1.45;;
49326;SDS011;35819;44.498;0.166;2022-09-09T18:53:28;3.35;;;1.70;;
49326;SDS011;35819;44.498;0.166;2022-09-09T18:56:03;7.15;;;1.85;;